Latest Weather Observations for Wadeye (Port Keats)

IDD60801

Issued at 10:31 am CST Wednesday 25 January 2017 (issued every 30 minutes, with the page automatically refreshed every 10 minutes)

About weather observations | Map of weather stations | Latest weather observations for NT | Other Formats
Station Details ID: 014948 Name: PORT KEATS AIRPORT Lat: -14.25 Lon: 129.53 Height: 28.0 m
Data from the previous 72 hours. | See also: Recent months at Wadeye (Port Keats)
Date/Time
CST
Temp
°C
App
Temp
°C
Dew
Point
°C
Rel
Hum
%
Delta-T
°C
Wind Press
QNH
hPa
Press
MSL
hPa
Rain since
9am
mm
Dir  Spd
km/h
Gust
km/h
Spd
kts
Gust
kts
25/10:00am 28.9 31.4 23.1 71 4.0 NNW 15 22 8 12 1005.9 1005.7 0.0
25/09:30am 27.3 31.0 23.3 79 2.7 NW 9 17 5 9 1006.0 1005.8 0.0
25/09:00am 27.2 31.8 24.1 83 2.1 NNE 7 9 4 5 1006.1 1005.9 32.0
25/08:30am 27.2 31.5 23.7 81 2.4 NW 7 11 4 6 1006.0 1005.8 32.0
25/08:00am 26.6 32.4 23.9 85 1.9 CALM 0 0 0 0 1005.8 1005.6 31.4
25/07:30am 25.7 31.3 23.6 88 1.4 CALM 0 0 0 0 1005.4 1005.2 31.4
25/07:00am 25.2 29.9 23.3 89 1.3 WSW 4 9 2 5 1005.1 1004.9 31.4
25/06:30am 25.1 30.0 23.0 88 1.4 WSW 2 7 1 4 1004.7 1004.5 31.4
25/06:00am 25.2 28.3 22.9 87 1.6 WSW 11 20 6 11 1004.2 1003.9 31.4
25/05:30am 25.3 30.2 23.0 87 1.6 SW 2 6 1 3 1004.1 1003.8 30.6
25/05:00am 25.4 29.3 22.9 86 1.7 WNW 7 11 4 6 1004.0 1003.7 30.6
25/04:30am 25.8 29.7 22.9 84 2.0 WSW 7 11 4 6 1004.1 1003.8 30.6
25/04:00am 26.2 29.3 22.9 82 2.2 W 11 19 6 10 1004.2 1003.9 30.4
25/03:30am 26.1 29.6 22.8 82 2.2 W 9 19 5 10 1004.3 1004.0 30.4
25/03:00am 26.0 29.2 23.1 84 2.0 W 11 17 6 9 1004.2 1003.9 30.4
25/02:30am 25.6 28.8 23.1 86 1.7 W 11 17 6 9 1004.4 1004.2 30.4
25/02:00am 25.2 29.6 23.4 90 1.2 W 6 9 3 5 1004.8 1004.6 30.4
25/01:30am 25.1 29.4 23.3 90 1.2 W 6 9 3 5 1005.4 1005.2 30.4
25/01:00am 24.9 30.2 23.1 90 1.2 CALM 0 0 0 0 1005.8 1005.6 30.2
25/12:30am 24.8 28.7 23.0 90 1.2 WSW 7 11 4 6 1006.3 1006.1 29.8
25/12:00am 24.6 28.2 23.0 91 1.1 WSW 9 15 5 8 1006.7 1006.5 29.6
 
Date/Time
CST
Temp
°C
App
Temp
°C
Dew
Point
°C
Rel
Hum
%
Delta-T
°C
Wind Press
QNH
hPa
Press
MSL
hPa
Rain since
9am
mm
Dir  Spd
km/h
Gust
km/h
Spd
kts
Gust
kts
24/11:30pm 24.6 27.5 22.5 88 1.4 SW 11 22 6 12 1006.9 1006.7 29.0
24/11:00pm 25.1 28.5 23.3 90 1.2 WSW 11 20 6 11 1007.0 1006.8 28.6
24/10:30pm 25.2 28.6 23.4 90 1.2 WSW 11 20 6 11 1006.9 1006.7 27.6
24/10:00pm 25.2 27.9 23.4 90 1.2 W 15 20 8 11 1006.5 1006.3 26.6
24/09:30pm 25.2 30.3 23.3 89 1.3 W 2 9 1 5 1006.5 1006.3 22.8
24/09:00pm 25.4 29.7 23.3 88 1.4 SW 6 11 3 6 1006.1 1005.9 19.4
24/08:30pm 25.4 29.2 22.7 85 1.8 WNW 7 9 4 5 1006.0 1005.8 17.8
24/08:00pm 25.4 28.7 22.5 84 2.0 WNW 9 17 5 9 1005.6 1005.4 16.0
24/07:30pm 25.2 29.1 22.9 87 1.6 WNW 7 13 4 7 1005.1 1004.9 15.6
24/07:00pm 24.9 29.8 23.1 90 1.2 W 2 9 1 5 1004.8 1004.6 15.4
24/06:30pm 24.7 28.2 22.8 89 1.3 WNW 9 15 5 8 1004.4 1004.2 14.8
24/06:00pm 25.1 29.2 23.2 89 1.3 W 7 11 4 6 1004.5 1004.3 12.6
24/05:30pm 25.1 28.8 23.2 89 1.3 W 9 13 5 7 1004.3 1004.0 12.0
24/05:00pm 24.9 28.6 23.3 91 1.1 WNW 9 13 5 7 1004.0 1003.7 11.6
24/04:30pm 24.6 28.1 22.8 90 1.2 W 9 15 5 8 1004.2 1003.9 8.8
24/04:00pm 24.7 27.6 22.4 87 1.5 WSW 11 19 6 10 1004.5 1004.3 5.0
24/03:30pm 26.3 30.1 22.8 81 2.4 WSW 7 13 4 7 1004.7 1004.5 1.6
24/03:00pm 26.4 30.0 23.1 82 2.3 W 9 15 5 8 1004.9 1004.7 1.4
24/02:30pm 26.6 30.6 23.1 81 2.4 WSW 7 19 4 10 1005.1 1004.9 1.0
24/02:00pm 26.3 30.2 23.0 82 2.2 SW 7 13 4 7 1005.6 1005.4 0.6
24/01:30pm 28.0 30.6 22.0 70 4.0 WSW 11 17 6 9 1005.9 1005.7 0.2
24/01:00pm 27.9 30.1 21.2 67 4.5 WSW 11 17 6 9 1006.2 1006.0 0.2
24/12:30pm 28.2 30.9 22.2 70 4.1 WSW 11 17 6 9 1006.6 1006.4 0.2
24/12:00pm 28.0 32.0 22.7 73 3.6 SW 6 11 3 6 1006.8 1006.6 0.2
24/11:30am 27.3 30.4 22.9 77 3.0 SSW 11 17 6 9 1007.0 1006.8 0.2
24/11:00am 27.1 30.5 22.7 77 3.0 S 9 15 5 8 1007.1 1006.9 0.2
24/10:30am 27.2 30.3 22.8 77 3.0 SSW 11 15 6 8 1007.1 1006.9 0.2
24/10:00am 26.2 29.5 22.5 80 2.5 S 9 15 5 8 1007.3 1007.1 0.0
24/09:30am 25.3 29.3 22.8 86 1.7 SSW 6 9 3 5 1007.2 1007.0 0.0
24/09:00am 25.0 28.4 22.7 87 1.6 SSW 9 13 5 7 1007.1 1006.9 23.2
24/08:30am 24.7 28.3 22.4 87 1.5 SSW 7 13 4 7 1006.9 1006.7 23.0
24/08:00am 24.6 29.5 22.3 87 1.5 CALM 0 0 0 0 1006.8 1006.6 23.0
24/07:30am 24.3 29.1 22.2 88 1.4 CALM 0 0 0 0 1006.1 1005.9 23.0
24/07:00am 24.1 28.8 22.0 88 1.4 CALM 0 0 0 0 1005.8 1005.6 23.0
24/06:30am 24.1 26.8 22.2 89 1.3 SW 11 17 6 9 1005.2 1005.0 23.0
24/06:00am 24.1 27.3 22.4 90 1.1 SSW 9 15 5 8 1004.8 1004.6 23.0
24/05:30am 23.9 26.7 22.3 91 1.1 SW 11 15 6 8 1004.8 1004.6 22.6
24/05:00am 23.7 27.3 22.1 91 1.1 W 6 7 3 4 1005.2 1005.0 21.2
24/04:30am 23.6 26.2 22.0 91 1.1 SW 11 24 6 13 1005.8 1005.6 17.2
24/04:00am 23.7 27.2 21.8 89 1.3 E 6 7 3 4 1005.8 1005.6 11.6
24/03:30am 23.7 26.3 21.2 86 1.6 S 9 15 5 8 1006.4 1006.2 9.6
24/03:00am 24.3 26.8 21.0 82 2.2 SSE 9 13 5 7 1006.4 1006.2 9.2
24/02:30am 24.8 24.6 21.3 81 2.3 SSE 24 35 13 19 1006.9 1006.7 9.2
24/02:00am 25.2 28.8 23.1 88 1.4 SSE 9 11 5 6 1006.9 1006.7 9.2
24/01:30am 25.1 28.8 23.3 90 1.2 SW 9 15 5 8 1006.0 1005.8 9.0
24/01:00am 25.1 29.4 23.3 90 1.2 W 6 9 3 5 1005.7 1005.5 8.6
24/12:30am 25.2 26.6 22.9 87 1.6 WSW 20 39 11 21 1006.6 1006.4 2.2
24/12:10am 27.9 30.1 23.3 76 3.1 W 17 46 9 25 1006.0 1005.8 0.4
24/12:00am 29.0 33.7 25.0 79 2.8 WNW 9 22 5 12 1006.5 1006.3 0.4
 
Date/Time
CST
Temp
°C
App
Temp
°C
Dew
Point
°C
Rel
Hum
%
Delta-T
°C
Wind Press
QNH
hPa
Press
MSL
hPa
Rain since
9am
mm
Dir  Spd
km/h
Gust
km/h
Spd
kts
Gust
kts
23/11:30pm 29.0 32.9 24.8 78 2.9 W 13 26 7 14 1007.1 1006.9 0.4
23/11:00pm 28.9 32.7 24.7 78 2.9 WNW 13 26 7 14 1006.8 1006.6 0.4
23/10:30pm 28.9 34.0 24.9 79 2.8 WNW 7 13 4 7 1007.5 1007.3 0.4
23/10:00pm 28.8 33.7 24.4 77 3.1 WNW 6 17 3 9 1007.0 1006.8 0.4
23/09:30pm 28.8 33.0 23.5 73 3.7 WNW 7 13 4 7 1006.2 1006.0 0.4
23/09:00pm 28.8 33.3 24.6 78 2.9 NW 9 13 5 7 1005.9 1005.7 0.4
23/08:30pm 28.7 33.3 23.8 75 3.4 WNW 6 9 3 5 1006.0 1005.8 0.4
23/08:00pm 28.9 33.4 24.0 75 3.4 WNW 7 13 4 7 1005.6 1005.4 0.4
23/07:30pm 28.9 33.4 24.0 75 3.4 WNW 7 13 4 7 1005.2 1005.0 0.4
23/07:00pm 29.2 33.0 24.1 74 3.5 NW 11 19 6 10 1004.6 1004.4 0.4
23/06:30pm 29.5 32.9 24.1 72 3.8 WNW 13 19 7 10 1004.0 1003.7 0.4
23/06:00pm 29.6 33.1 23.5 69 4.2 WNW 11 17 6 9 1003.8 1003.5 0.4
23/05:30pm 30.2 33.6 24.1 70 4.3 WNW 13 20 7 11 1003.4 1003.1 0.4
23/05:00pm 30.6 33.7 23.5 66 4.9 W 13 24 7 13 1003.1 1002.8 0.4
23/04:30pm 30.4 32.6 23.3 66 4.9 W 17 30 9 16 1003.0 1002.7 0.4
23/04:00pm 30.6 33.0 23.0 64 5.2 W 15 22 8 12 1003.5 1003.2 0.4
23/03:30pm 31.0 33.4 22.3 60 5.9 WSW 13 26 7 14 1004.0 1003.7 0.4
23/03:00pm 31.1 33.4 22.7 61 5.8 W 15 24 8 13 1004.4 1004.2 0.4
23/02:30pm 31.5 34.1 21.9 56 6.5 WSW 11 19 6 10 1004.6 1004.4 0.4
23/02:00pm 31.4 35.1 23.2 61 5.7 WSW 9 15 5 8 1005.0 1004.8 0.4
23/01:30pm 31.0 33.8 22.3 60 5.9 SW 11 20 6 11 1005.4 1005.2 0.4
23/01:00pm 31.1 33.7 22.7 61 5.8 SW 13 20 7 11 1006.1 1005.9 0.4
23/12:30pm 31.1 34.7 23.7 64 5.1 SSW 11 17 6 9 1006.0 1005.8 0.4
23/12:00pm 30.6 33.0 22.2 61 5.7 SW 13 20 7 11 1006.3 1006.1 0.4
23/11:30am 29.6 34.2 24.2 73 3.8 W 7 11 4 6 1006.7 1006.5 0.4
23/11:00am 29.3 34.2 24.6 76 3.3 WSW 7 13 4 7 1006.8 1006.6 0.4
23/10:30am 28.4 32.5 24.0 77 3.0 SSW 9 17 5 9 1006.7 1006.5 0.4
23/10:00am 27.3 31.9 24.2 83 2.1 S 7 11 4 6 1007.2 1007.0 0.4
23/09:30am 26.6 28.8 23.3 82 2.3 SSW 17 28 9 15 1007.3 1007.1 0.4
23/09:00am 28.7 33.8 24.9 80 2.7 WSW 7 11 4 6 1006.9 1006.7 5.4
23/08:30am 27.4 32.6 24.8 86 1.8 SW 6 9 3 5 1007.3 1007.1 5.4
23/08:00am 26.6 32.7 24.4 88 1.5 CALM 0 0 0 0 1007.0 1006.8 5.4
23/07:30am 26.0 32.0 24.2 90 1.2 CALM 0 0 0 0 1006.8 1006.6 5.4
23/07:00am 25.5 30.9 23.9 91 1.1 SSW 2 7 1 4 1006.5 1006.3 5.4
23/06:30am 25.3 29.8 23.7 91 1.1 S 6 11 3 6 1006.4 1006.2 5.4
23/06:00am 25.1 29.4 23.7 92 1.0 S 7 11 4 6 1005.9 1005.7 5.4
23/05:30am 25.0 30.5 23.4 91 1.1 CALM 0 0 0 0 1005.4 1005.2 5.4
23/05:00am 24.7 28.8 22.9 90 1.2 NW 6 9 3 5 1004.8 1004.6 5.4
23/04:30am 24.6 29.8 22.8 90 1.2 CALM 0 0 0 0 1004.8 1004.6 5.2
23/04:00am 24.5 29.6 22.6 89 1.3 CALM 0 0 0 0 1005.4 1005.2 5.2
23/03:30am 24.2 27.2 21.9 87 1.5 SSW 9 13 5 7 1005.9 1005.7 5.2
23/03:00am 24.6 27.2 21.9 85 1.8 W 11 19 6 10 1006.2 1006.0 5.2
23/02:30am 24.8 30.2 23.2 91 1.1 CALM 0 6 0 3 1006.1 1005.9 5.0
23/02:00am 24.8 28.9 23.2 91 1.1 N 7 11 4 6 1006.0 1005.8 5.0
23/01:30am 24.7 28.3 23.1 91 1.1 N 9 11 5 6 1006.9 1006.7 5.0
23/01:00am 24.7 28.8 22.9 90 1.2 N 6 7 3 4 1006.7 1006.5 4.8
23/12:30am 24.6 29.8 22.8 90 1.2 CALM 0 0 0 0 1007.1 1006.9 4.2
23/12:00am 24.6 28.3 22.5 88 1.4 N 7 9 4 5 1007.8 1007.6 3.6
 
Date/Time
CST
Temp
°C
App
Temp
°C
Dew
Point
°C
Rel
Hum
%
Delta-T
°C
Wind Press
QNH
hPa
Press
MSL
hPa
Rain since
9am
mm
Dir  Spd
km/h
Gust
km/h
Spd
kts
Gust
kts
22/11:30pm 25.3 29.5 23.5 90 1.2 N 7 9 4 5 1008.7 1008.5 2.8
22/11:00pm 25.0 30.0 22.5 86 1.7 CALM 0 6 0 3 1009.0 1008.8 1.6
22/10:30pm 25.0 28.4 21.7 82 2.2 WSW 6 7 3 4 1008.4 1008.2 0.6
22/10:00pm 26.0 31.1 23.3 85 1.8 S 2 7 1 4 1008.5 1008.3 0.2
22/09:30pm 27.1 28.9 22.5 76 3.1 SSE 17 24 9 13 1008.4 1008.2 0.0
22/09:00pm 29.1 34.7 24.9 78 2.9 NW 4 11 2 6 1007.7 1007.5 0.0
22/08:30pm 29.1 33.7 24.7 77 3.1 NW 9 17 5 9 1006.8 1006.6 0.0
22/08:00pm 29.1 33.4 24.9 78 2.9 NW 11 17 6 9 1006.2 1006.0 0.0
22/07:30pm 29.1 34.0 24.7 77 3.1 NW 7 11 4 6 1006.6 1006.4 0.0
22/07:00pm 29.1 33.5 24.4 76 3.3 WNW 9 15 5 8 1006.2 1006.0 0.0
22/06:30pm 29.5 33.6 24.6 75 3.4 NW 11 19 6 10 1006.1 1005.9 0.0
22/06:00pm 29.7 33.4 24.6 74 3.6 NW 13 20 7 11 1005.7 1005.5 0.0
22/05:30pm 29.9 33.1 24.3 72 3.9 NW 15 24 8 13 1005.4 1005.2 0.0
22/05:00pm 30.2 32.9 24.1 70 4.2 WNW 17 26 9 14 1004.9 1004.7 0.0
22/04:30pm 30.5 33.4 23.9 68 4.6 WNW 15 22 8 12 1004.7 1004.5 0.0
22/04:00pm 30.8 33.6 23.7 66 4.9 WNW 15 22 8 12 1004.7 1004.5 0.0
22/03:30pm 31.2 33.7 23.8 64 5.2 W 17 28 9 15 1004.9 1004.7 0.0
22/03:00pm 31.0 33.4 22.9 62 5.6 W 15 26 8 14 1005.3 1005.1 0.0
22/02:30pm 31.4 34.3 23.8 64 5.3 WSW 15 22 8 12 1005.9 1005.7 0.0
22/02:00pm 31.0 33.4 22.9 62 5.6 W 15 24 8 13 1006.4 1006.2 0.0
22/01:30pm 31.2 34.3 23.6 64 5.3 WSW 13 17 7 9 1006.9 1006.7 0.0
22/01:00pm 31.4 34.8 24.0 65 5.2 WSW 13 20 7 11 1007.5 1007.3 0.0
22/12:30pm 31.1 34.0 23.2 63 5.5 SW 13 24 7 13 1008.0 1007.8 0.0
22/12:00pm 30.6 33.9 23.8 67 4.7 WSW 13 19 7 10 1008.4 1008.2 0.0
22/11:30am 30.7 34.5 23.4 65 5.0 WSW 9 17 5 9 1008.9 1008.7 0.0
22/11:00am 29.8 33.0 23.7 70 4.2 WSW 13 22 7 12 1009.1 1008.9 0.0

Other Formats:

Comma delimited format used in spreadsheet applications
http://www.bom.gov.au/fwo/IDD60801/IDD60801.95111.axf

JavaScript Object Notation format (JSON) in row-major order
http://www.bom.gov.au/fwo/IDD60801/IDD60801.95111.json